Time;durP1;ratioP1;P1;durP2;ratioP2;P2;SDS_P1;SDS_P2;PMS_P1;PMS_P2;Temp;Humidity;BMP_temperature;BMP_pressure;BME280_temperature;BME280_humidity;BME280_pressure;Samples;Min_cycle;Max_cycle;Signal;HPM_P1;HPM_P2
2022/09/26 00:04:50;;;;;;;0.30;0.30;;;;;;;16.72;70.59;99909.34;18628732;31;20139;-58
2022/09/26 00:14:54;;;;;;;0.40;0.40;;;;;;;16.60;70.82;99903.63;18629285;31;20100;-58
2022/09/26 00:24:57;;;;;;;0.30;0.30;;;;;;;16.58;70.86;99888.78;18628962;31;20351;-59
2022/09/26 00:35:02;;;;;;;0.20;0.20;;;;;;;16.49;71.10;99869.72;18627844;31;20159;-58
2022/09/26 00:45:09;;;;;;;0.30;0.30;;;;;;;16.46;70.89;99879.53;18627447;31;20505;-58
2022/09/26 00:55:15;;;;;;;0.20;0.20;;;;;;;16.39;70.78;99864.87;18627172;31;20410;-58
2022/09/26 01:05:20;;;;;;;0.60;0.60;;;;;;;16.31;70.90;99844.91;18595804;31;20133;-58
2022/09/26 01:15:25;;;;;;;0.28;0.28;;;;;;;16.24;71.04;99838.12;18591984;31;20353;-58
2022/09/26 01:25:46;;;;;;;0.30;0.30;;;;;;;16.22;71.22;99825.03;18591708;31;20111;-59
2022/09/26 01:36:05;;;;;;;0.70;0.70;;;;;;;16.24;71.31;99817.06;18588148;31;20102;-58
2022/09/26 01:46:14;;;;;;;0.80;0.80;;;;;;;16.27;71.37;99816.09;18560379;32;20092;-58
2022/09/26 01:56:22;;;;;;;0.40;0.40;;;;;;;16.30;71.38;99801.06;18560233;32;20103;-58
2022/09/26 02:06:30;;;;;;;0.98;0.62;;;;;;;16.30;71.57;99789.66;18559948;31;20088;-58
2022/09/26 02:16:38;;;;;;;0.20;0.20;;;;;;;16.32;71.60;99769.41;18574198;31;20181;-58
2022/09/26 02:26:42;;;;;;;1.02;0.55;;;;;;;16.31;71.87;99765.03;18589177;31;20106;-58
2022/09/26 02:36:46;;;;;;;0.20;0.20;;;;;;;16.27;71.75;99769.56;18605241;31;20096;-58
2022/09/26 02:47:09;;;;;;;0.60;0.57;;;;;;;16.24;71.96;99743.34;18624035;31;20471;-58
2022/09/26 02:57:23;;;;;;;0.40;0.40;;;;;;;16.48;71.39;99762.63;18623508;31;20132;-58
2022/09/26 03:07:30;;;;;;;0.30;0.30;;;;;;;16.36;71.66;99765.72;18622929;31;20114;-58
2022/09/26 03:17:35;;;;;;;0.40;0.40;;;;;;;16.10;73.20;99741.19;18622766;31;20119;-59
2022/09/26 03:27:40;;;;;;;0.62;0.50;;;;;;;16.35;71.99;99737.69;18621767;31;20180;-58
2022/09/26 03:37:45;;;;;;;0.30;0.30;;;;;;;16.32;72.11;99725.47;18622738;31;20473;-58
2022/09/26 03:47:48;;;;;;;2.85;1.05;;;;;;;16.44;71.73;99716.28;18620931;31;20482;-59
2022/09/26 03:57:53;;;;;;;0.30;0.30;;;;;;;16.42;71.51;99720.75;18621439;31;20127;-58
2022/09/26 04:07:56;;;;;;;1.12;0.77;;;;;;;16.32;71.94;99717.56;18620040;31;20095;-58
2022/09/26 04:18:00;;;;;;;0.47;0.47;;;;;;;16.31;71.95;99696.56;18619425;31;20107;-58
2022/09/26 04:28:03;;;;;;;0.85;0.62;;;;;;;16.06;73.15;99684.31;18618687;31;20096;-58
2022/09/26 04:38:08;;;;;;;1.08;1.00;;;;;;;15.99;73.51;99675.78;18618168;31;20092;-58
2022/09/26 04:48:11;;;;;;;0.40;0.40;;;;;;;16.31;72.16;99646.50;18628445;31;20088;-58
2022/09/26 04:58:16;;;;;;;2.20;0.65;;;;;;;16.40;71.64;99646.16;18627216;31;20092;-58
2022/09/26 05:08:19;;;;;;;0.55;0.55;;;;;;;16.38;71.90;99650.63;18591935;31;20154;-58
2022/09/26 05:18:25;;;;;;;0.50;0.50;;;;;;;16.47;71.37;99676.62;18561025;31;20360;-58
2022/09/26 05:28:28;;;;;;;0.45;0.45;;;;;;;16.42;71.69;99665.44;18560764;31;20088;-58
2022/09/26 05:38:32;;;;;;;0.30;0.30;;;;;;;16.28;72.39;99633.47;18561466;32;20392;-58
2022/09/26 05:48:37;;;;;;;0.50;0.50;;;;;;;16.42;72.07;99659.28;18560469;31;20084;-58
2022/09/26 05:58:42;;;;;;;0.40;0.40;;;;;;;16.45;72.10;99653.88;18626076;31;20172;-58
2022/09/26 06:08:45;;;;;;;0.57;0.40;;;;;;;16.57;71.75;99665.72;18608172;31;20424;-58
2022/09/26 06:18:51;;;;;;;0.50;0.50;;;;;;;16.44;72.23;99665.34;18579373;31;20120;-58
2022/09/26 06:28:56;;;;;;;1.17;0.62;;;;;;;16.45;72.21;99651.25;18592873;31;20363;-58
2022/09/26 06:39:01;;;;;;;2.58;1.40;;;;;;;16.28;73.00;99625.56;18557559;32;20139;-58
2022/09/26 06:49:05;;;;;;;3.25;1.50;;;;;;;16.42;72.64;99641.72;18556842;31;20092;-58
2022/09/26 06:59:10;;;;;;;0.30;0.30;;;;;;;16.61;72.03;99644.47;18563429;31;20690;-58
2022/09/26 07:09:13;;;;;;;1.45;1.37;;;;;;;16.73;72.14;99647.53;18596732;31;20120;-58
2022/09/26 07:19:18;;;;;;;1.55;1.05;;;;;;;16.84;72.28;99629.53;18570512;31;20379;-58
2022/09/26 07:29:21;;;;;;;0.60;0.60;;;;;;;16.90;72.15;99641.59;18555775;32;20136;-58
2022/09/26 07:39:26;;;;;;;0.30;0.30;;;;;;;17.04;71.79;99641.91;18554354;31;20389;-58
2022/09/26 07:59:53;;;;;;;0.30;0.30;;;;;;;17.36;71.35;99659.09;18553686;32;20110;-58
2022/09/26 08:09:56;;;;;;;0.80;0.70;;;;;;;17.39;71.71;99674.81;18602608;31;20140;-58
2022/09/26 08:20:01;;;;;;;0.35;0.35;;;;;;;17.41;71.98;99676.47;18623871;31;20134;-58
2022/09/26 08:30:06;;;;;;;0.30;0.30;;;;;;;17.47;72.72;99660.34;18628520;31;20096;-58
2022/09/26 08:40:12;;;;;;;1.65;0.55;;;;;;;17.05;72.59;99661.25;18576148;31;20089;-58
2022/09/26 08:50:21;;;;;;;0.55;0.37;;;;;;;17.80;71.32;99660.75;18563703;32;20134;-57
2022/09/26 09:00:27;;;;;;;0.20;0.20;;;;;;;18.23;72.11;99647.41;18563400;31;20088;-58
2022/09/26 09:10:40;;;;;;;1.77;1.65;;;;;;;18.59;70.11;99665.13;18565215;31;20140;-58
2022/09/26 09:20:54;;;;;;;4.28;1.10;;;;;;;18.51;70.07;99665.47;18610372;31;20478;-57
2022/09/26 09:31:00;;;;;;;0.20;0.20;;;;;;;18.70;70.22;99670.75;18628011;31;20434;-57
2022/09/26 09:41:07;;;;;;;0.62;0.52;;;;;;;18.90;68.95;99666.28;18611799;31;20178;-58
2022/09/26 09:51:21;;;;;;;0.20;0.20;;;;;;;18.81;68.73;99661.44;18585057;31;20092;-57
2022/09/26 10:01:29;;;;;;;0.30;0.30;;;;;;;18.86;69.11;99641.78;18628663;31;20076;-58
2022/09/26 10:11:38;;;;;;;0.32;0.32;;;;;;;18.71;70.06;99653.09;18626965;31;20103;-58
2022/09/26 10:21:47;;;;;;;0.30;0.30;;;;;;;18.28;71.17;99646.28;18625624;31;20136;-58
2022/09/26 10:31:55;;;;;;;0.20;0.20;;;;;;;18.83;68.98;99649.00;18589410;31;20140;-58
2022/09/26 10:42:00;;;;;;;0.30;0.30;;;;;;;17.69;71.60;99642.75;18603261;31;20749;-58
2022/09/26 10:52:08;;;;;;;2.80;0.73;;;;;;;18.55;68.19;99637.13;18559688;32;20174;-58
2022/09/26 11:02:21;;;;;;;0.08;0.08;;;;;;;18.76;71.59;99621.13;18597378;31;20752;-62
2022/09/26 11:12:25;;;;;;;0.40;0.40;;;;;;;18.96;66.89;99614.88;18623947;31;20108;-58
2022/09/26 11:22:34;;;;;;;0.17;0.17;;;;;;;18.86;67.66;99635.63;18588440;31;20361;-58
2022/09/26 11:32:41;;;;;;;0.45;0.43;;;;;;;18.86;66.64;99638.25;18576703;31;20088;-57
2022/09/26 11:42:54;;;;;;;0.20;0.20;;;;;;;18.85;67.24;99649.78;18607091;31;20151;-58
2022/09/26 11:53:15;;;;;;;1.35;0.55;;;;;;;19.41;65.13;99639.97;18593465;31;20080;-58
2022/09/26 12:04:07;;;;;;;0.10;0.10;;;;;;;20.02;66.23;99628.91;18627280;31;20100;-57
2022/09/26 12:14:35;;;;;;;0.13;0.13;;;;;;;20.19;63.06;99624.47;18626596;31;20438;-57
2022/09/26 12:24:45;;;;;;;0.10;0.10;;;;;;;20.30;63.96;99627.41;18618774;31;20435;-57
2022/09/26 12:35:02;;;;;;;0.20;0.20;;;;;;;20.20;63.19;99626.19;18561056;31;20145;-57
2022/09/26 12:45:32;;;;;;;0.80;0.25;;;;;;;19.92;61.82;99611.78;18581526;31;20445;-58
2022/09/26 12:55:40;;;;;;;0.10;0.10;;;;;;;20.16;60.32;99588.44;18571806;31;20100;-57
2022/09/26 13:06:03;;;;;;;0.10;0.10;;;;;;;20.33;60.60;99582.19;18559080;31;20145;-58
2022/09/26 13:16:20;;;;;;;1.10;0.40;;;;;;;21.14;60.24;99574.94;18580420;31;20689;-57
2022/09/26 13:26:27;;;;;;;0.05;0.05;;;;;;;21.00;60.44;99562.47;18592883;31;20077;-57
2022/09/26 13:36:32;;;;;;;0.62;0.30;;;;;;;20.80;61.19;99568.94;18560862;31;20092;-57
2022/09/26 13:46:42;;;;;;;0.55;0.55;;;;;;;19.78;62.62;99573.66;18561251;31;20126;-57
2022/09/26 13:56:48;;;;;;;0.73;0.43;;;;;;;20.61;59.90;99572.66;18563471;31;20398;-58
2022/09/26 14:18:05;;;;;;;0.10;0.10;;;;;;;20.48;61.41;99574.28;18561617;32;20136;-57
2022/09/26 14:28:16;;;;;;;0.20;0.20;;;;;;;20.54;60.08;99541.31;18561603;32;20065;-57
2022/09/26 14:38:21;;;;;;;0.53;0.43;;;;;;;20.61;59.00;99548.81;18562236;32;20455;-57
2022/09/26 14:48:34;;;;;;;0.30;0.15;;;;;;;20.56;56.99;99531.47;18561746;32;20093;-57
2022/09/26 14:59:14;;;;;;;0.00;0.00;;;;;;;20.43;58.10;99532.12;18561719;32;20451;-57
2022/09/26 15:09:22;;;;;;;0.10;0.10;;;;;;;20.76;57.79;99512.56;18561351;32;20119;-57
2022/09/26 15:19:28;;;;;;;0.10;0.10;;;;;;;20.56;59.06;99520.84;18562852;31;20110;-58
2022/09/26 15:29:35;;;;;;;0.10;0.10;;;;;;;20.47;59.89;99509.84;18572953;31;20157;-57
2022/09/26 15:39:41;;;;;;;0.65;0.40;;;;;;;20.37;61.33;99498.06;18612885;31;20103;-57
2022/09/26 15:49:45;;;;;;;0.03;0.03;;;;;;;20.22;63.33;99505.09;18557488;32;73408;-57
2022/09/26 15:59:48;;;;;;;0.10;0.10;;;;;;;20.01;63.64;99502.69;18599594;31;20142;-57
2022/09/26 16:09:54;;;;;;;0.10;0.10;;;;;;;20.00;63.00;99498.34;18616163;31;20120;-57
2022/09/26 16:20:01;;;;;;;0.10;0.10;;;;;;;19.75;64.48;99485.56;18557111;32;20751;-57
2022/09/26 16:30:36;;;;;;;0.13;0.13;;;;;;;19.46;65.08;99491.53;18564784;31;20091;-57
2022/09/26 16:40:39;;;;;;;0.40;0.40;;;;;;;18.96;66.14;99494.06;18580061;31;20100;-57
2022/09/26 16:50:44;;;;;;;2.92;0.95;;;;;;;18.67;66.23;99480.56;18611937;31;20157;-57
2022/09/26 17:11:15;;;;;;;0.30;0.30;;;;;;;17.95;66.43;99482.31;18594168;31;20092;-57
2022/09/26 17:21:18;;;;;;;0.20;0.20;;;;;;;17.53;67.73;99487.72;18568273;31;20085;-57
2022/09/26 17:31:23;;;;;;;0.30;0.30;;;;;;;17.30;66.85;99497.53;18593067;31;20093;-58
2022/09/26 17:41:26;;;;;;;0.40;0.40;;;;;;;16.93;67.52;99488.56;18567940;31;20101;-57
2022/09/26 17:51:31;;;;;;;1.05;0.95;;;;;;;16.69;67.58;99493.13;18563867;32;20088;-57
2022/09/26 18:01:34;;;;;;;0.30;0.30;;;;;;;16.43;68.06;99506.47;18592959;31;20378;-58
2022/09/26 18:11:40;;;;;;;0.37;0.37;;;;;;;16.27;67.96;99500.97;18573209;31;20375;-57
2022/09/26 18:21:43;;;;;;;0.30;0.30;;;;;;;16.02;68.32;99501.06;18574180;31;20391;-57
2022/09/26 18:31:48;;;;;;;1.17;0.82;;;;;;;15.75;69.35;99493.31;18561973;31;20104;-57
2022/09/26 18:42:02;;;;;;;0.50;0.50;;;;;;;15.68;69.15;99496.16;18562635;31;20432;-57
2022/09/26 18:52:13;;;;;;;0.60;0.60;;;;;;;15.66;68.75;99492.75;18567842;31;20139;-58
2022/09/26 19:02:21;;;;;;;1.08;0.98;;;;;;;15.52;68.66;99500.28;18576312;31;20114;-57
2022/09/26 19:12:26;;;;;;;0.65;0.65;;;;;;;15.24;69.25;99498.66;18611750;31;20088;-57
2022/09/26 19:22:30;;;;;;;0.40;0.40;;;;;;;15.18;69.51;99501.53;18614943;31;20123;-57
2022/09/26 19:32:36;;;;;;;0.45;0.45;;;;;;;15.03;69.63;99516.91;18624849;31;20714;-57
2022/09/26 19:42:41;;;;;;;0.37;0.37;;;;;;;14.96;69.43;99524.16;18624930;31;20111;-57
2022/09/26 19:52:45;;;;;;;3.20;0.70;;;;;;;14.89;69.25;99525.28;18623663;31;20417;-58
2022/09/26 20:02:51;;;;;;;1.02;1.02;;;;;;;14.80;69.56;99526.47;18623716;31;20095;-57
2022/09/26 20:12:55;;;;;;;0.70;0.50;;;;;;;14.89;69.30;99504.25;18627654;31;20127;-57
2022/09/26 20:22:59;;;;;;;0.40;0.40;;;;;;;14.79;69.81;99508.94;18629987;31;20113;-57
2022/09/26 20:33:04;;;;;;;0.50;0.50;;;;;;;14.79;70.00;99516.00;18631403;31;20096;-57
2022/09/26 20:43:10;;;;;;;0.40;0.40;;;;;;;14.69;70.65;99518.03;18631049;31;20423;-57
2022/09/26 20:53:17;;;;;;;0.40;0.40;;;;;;;14.82;70.56;99508.00;18630524;31;20127;-57
2022/09/26 21:03:24;;;;;;;0.40;0.40;;;;;;;14.81;70.17;99517.66;18630360;31;20205;-58
2022/09/26 21:13:28;;;;;;;0.60;0.60;;;;;;;14.79;70.08;99498.44;18630294;31;20088;-56
2022/09/26 21:23:33;;;;;;;0.60;0.60;;;;;;;14.84;69.72;99488.66;18629433;31;20114;-57
2022/09/26 21:33:38;;;;;;;0.95;0.65;;;;;;;14.70;71.01;99482.97;18631039;31;20102;-57
2022/09/26 21:43:44;;;;;;;1.23;1.17;;;;;;;14.79;70.44;99480.06;18629328;31;20462;-57
2022/09/26 21:53:52;;;;;;;1.27;1.17;;;;;;;14.79;70.33;99453.78;18629084;31;20106;-57
2022/09/26 22:03:55;;;;;;;1.30;0.93;;;;;;;14.77;70.58;99455.59;18628553;31;20117;-58
2022/09/26 22:13:59;;;;;;;1.20;0.90;;;;;;;14.71;70.68;99463.69;18628407;31;20104;-57
2022/09/26 22:24:03;;;;;;;0.35;0.35;;;;;;;14.83;70.55;99455.41;18627928;31;20360;-57
2022/09/26 22:34:07;;;;;;;0.75;0.75;;;;;;;14.77;71.05;99437.22;18627120;31;20467;-57
2022/09/26 22:44:11;;;;;;;1.37;1.05;;;;;;;14.82;71.27;99439.69;18627306;31;20423;-57
2022/09/26 22:54:15;;;;;;;1.75;1.65;;;;;;;14.77;71.43;99415.38;18626696;31;20096;-57
2022/09/26 23:04:18;;;;;;;0.80;0.57;;;;;;;14.91;71.10;99396.47;18626662;31;20087;-57
2022/09/26 23:14:23;;;;;;;1.33;1.00;;;;;;;14.99;70.67;99386.56;18626350;31;20461;-57
2022/09/26 23:24:26;;;;;;;0.52;0.52;;;;;;;14.96;71.10;99386.63;18627291;31;20127;-57
2022/09/26 23:34:31;;;;;;;0.40;0.40;;;;;;;15.08;70.81;99370.44;18624111;31;20096;-57
2022/09/26 23:44:35;;;;;;;1.23;1.12;;;;;;;14.99;71.16;99357.62;18624546;31;20652;-57
2022/09/26 23:54:39;;;;;;;0.70;0.52;;;;;;;15.16;70.85;99349.12;18624342;31;20107;-57
